sensor_id;sensor_type;location;lat;lon;timestamp;P1;durP1;ratioP1;P2;durP2;ratioP2
61383;SDS011;63511;49.346;8.798;2023-02-11T00:02:11;73.88;;;32.38;;
61383;SDS011;63511;49.346;8.798;2023-02-11T00:04:38;79.22;;;33.20;;
61383;SDS011;63511;49.346;8.798;2023-02-11T00:07:04;72.10;;;32.60;;
61383;SDS011;63511;49.346;8.798;2023-02-11T00:09:31;73.72;;;32.78;;
61383;SDS011;63511;49.346;8.798;2023-02-11T00:11:57;71.45;;;34.13;;
61383;SDS011;63511;49.346;8.798;2023-02-11T00:14:24;74.70;;;32.58;;
61383;SDS011;63511;49.346;8.798;2023-02-11T00:16:52;64.30;;;31.88;;
61383;SDS011;63511;49.346;8.798;2023-02-11T00:19:19;76.30;;;34.40;;
61383;SDS011;63511;49.346;8.798;2023-02-11T00:21:45;82.20;;;36.05;;
61383;SDS011;63511;49.346;8.798;2023-02-11T00:24:12;71.43;;;33.28;;
61383;SDS011;63511;49.346;8.798;2023-02-11T00:26:38;76.32;;;33.50;;
61383;SDS011;63511;49.346;8.798;2023-02-11T00:29:05;70.88;;;32.72;;
61383;SDS011;63511;49.346;8.798;2023-02-11T00:31:34;75.22;;;32.75;;
61383;SDS011;63511;49.346;8.798;2023-02-11T00:34:01;77.32;;;35.65;;
61383;SDS011;63511;49.346;8.798;2023-02-11T00:36:28;79.05;;;35.60;;
61383;SDS011;63511;49.346;8.798;2023-02-11T00:38:55;71.68;;;32.72;;
61383;SDS011;63511;49.346;8.798;2023-02-11T00:41:23;77.40;;;34.95;;
61383;SDS011;63511;49.346;8.798;2023-02-11T00:43:50;75.65;;;33.72;;
61383;SDS011;63511;49.346;8.798;2023-02-11T00:46:17;72.47;;;33.38;;
61383;SDS011;63511;49.346;8.798;2023-02-11T00:48:45;68.47;;;33.50;;
61383;SDS011;63511;49.346;8.798;2023-02-11T00:51:13;79.45;;;35.78;;
61383;SDS011;63511;49.346;8.798;2023-02-11T00:53:39;76.68;;;35.85;;
61383;SDS011;63511;49.346;8.798;2023-02-11T00:56:06;75.00;;;34.00;;
61383;SDS011;63511;49.346;8.798;2023-02-11T00:58:33;87.75;;;36.58;;
61383;SDS011;63511;49.346;8.798;2023-02-11T01:01:00;100.13;;;41.60;;
61383;SDS011;63511;49.346;8.798;2023-02-11T01:03:27;94.85;;;41.40;;
61383;SDS011;63511;49.346;8.798;2023-02-11T01:05:54;91.55;;;40.10;;
61383;SDS011;63511;49.346;8.798;2023-02-11T01:08:22;88.50;;;38.67;;
61383;SDS011;63511;49.346;8.798;2023-02-11T01:10:53;93.63;;;39.95;;
61383;SDS011;63511;49.346;8.798;2023-02-11T01:13:20;88.93;;;39.75;;
61383;SDS011;63511;49.346;8.798;2023-02-11T01:15:47;87.38;;;38.28;;
61383;SDS011;63511;49.346;8.798;2023-02-11T01:18:14;86.35;;;37.40;;
61383;SDS011;63511;49.346;8.798;2023-02-11T01:20:40;84.25;;;35.63;;
61383;SDS011;63511;49.346;8.798;2023-02-11T01:23:07;71.78;;;34.33;;
61383;SDS011;63511;49.346;8.798;2023-02-11T01:25:34;73.78;;;33.55;;
61383;SDS011;63511;49.346;8.798;2023-02-11T01:28:01;87.55;;;38.42;;
61383;SDS011;63511;49.346;8.798;2023-02-11T01:30:28;82.25;;;38.90;;
61383;SDS011;63511;49.346;8.798;2023-02-11T01:32:54;70.57;;;34.22;;
61383;SDS011;63511;49.346;8.798;2023-02-11T01:35:21;80.00;;;34.95;;
61383;SDS011;63511;49.346;8.798;2023-02-11T01:37:47;76.03;;;36.55;;
61383;SDS011;63511;49.346;8.798;2023-02-11T01:40:15;75.22;;;35.33;;
61383;SDS011;63511;49.346;8.798;2023-02-11T01:42:43;74.10;;;34.50;;
61383;SDS011;63511;49.346;8.798;2023-02-11T01:48:19;78.13;;;35.10;;
61383;SDS011;63511;49.346;8.798;2023-02-11T01:50:48;76.80;;;33.70;;
61383;SDS011;63511;49.346;8.798;2023-02-11T01:53:17;69.68;;;32.80;;
61383;SDS011;63511;49.346;8.798;2023-02-11T01:56:02;75.07;;;34.10;;
61383;SDS011;63511;49.346;8.798;2023-02-11T01:58:49;73.30;;;34.63;;
61383;SDS011;63511;49.346;8.798;2023-02-11T02:01:19;75.50;;;34.60;;
61383;SDS011;63511;49.346;8.798;2023-02-11T02:03:50;74.93;;;35.25;;
61383;SDS011;63511;49.346;8.798;2023-02-11T02:06:21;75.68;;;34.75;;
61383;SDS011;63511;49.346;8.798;2023-02-11T02:08:53;77.15;;;35.92;;
61383;SDS011;63511;49.346;8.798;2023-02-11T02:11:26;80.57;;;34.03;;
61383;SDS011;63511;49.346;8.798;2023-02-11T02:13:54;79.05;;;36.88;;
61383;SDS011;63511;49.346;8.798;2023-02-11T02:16:21;70.93;;;34.85;;
61383;SDS011;63511;49.346;8.798;2023-02-11T02:18:55;74.90;;;34.38;;
61383;SDS011;63511;49.346;8.798;2023-02-11T02:21:43;79.60;;;34.10;;
61383;SDS011;63511;49.346;8.798;2023-02-11T02:24:48;79.50;;;36.17;;
61383;SDS011;63511;49.346;8.798;2023-02-11T02:27:28;72.90;;;33.80;;
61383;SDS011;63511;49.346;8.798;2023-02-11T02:33:21;77.90;;;34.72;;
61383;SDS011;63511;49.346;8.798;2023-02-11T02:35:59;68.88;;;33.83;;
61383;SDS011;63511;49.346;8.798;2023-02-11T02:38:33;70.28;;;33.08;;
61383;SDS011;63511;49.346;8.798;2023-02-11T02:41:06;70.60;;;33.92;;
61383;SDS011;63511;49.346;8.798;2023-02-11T02:43:35;75.68;;;34.33;;
61383;SDS011;63511;49.346;8.798;2023-02-11T02:46:12;68.40;;;34.00;;
61383;SDS011;63511;49.346;8.798;2023-02-11T02:48:43;70.30;;;33.55;;
61383;SDS011;63511;49.346;8.798;2023-02-11T02:51:14;63.20;;;32.17;;
61383;SDS011;63511;49.346;8.798;2023-02-11T02:54:07;81.70;;;35.88;;
61383;SDS011;63511;49.346;8.798;2023-02-11T02:56:51;80.13;;;34.22;;
61383;SDS011;63511;49.346;8.798;2023-02-11T02:59:23;71.38;;;32.45;;
61383;SDS011;63511;49.346;8.798;2023-02-11T03:01:58;70.15;;;33.38;;
61383;SDS011;63511;49.346;8.798;2023-02-11T03:04:34;64.03;;;32.30;;
61383;SDS011;63511;49.346;8.798;2023-02-11T03:07:07;72.50;;;33.60;;
61383;SDS011;63511;49.346;8.798;2023-02-11T03:09:44;67.28;;;32.30;;
61383;SDS011;63511;49.346;8.798;2023-02-11T03:12:14;72.75;;;34.67;;
61383;SDS011;63511;49.346;8.798;2023-02-11T03:14:41;65.40;;;33.00;;
61383;SDS011;63511;49.346;8.798;2023-02-11T03:17:09;72.10;;;33.03;;
61383;SDS011;63511;49.346;8.798;2023-02-11T03:19:38;72.60;;;34.75;;
61383;SDS011;63511;49.346;8.798;2023-02-11T03:22:10;71.85;;;34.70;;
61383;SDS011;63511;49.346;8.798;2023-02-11T03:24:40;70.35;;;33.92;;
61383;SDS011;63511;49.346;8.798;2023-02-11T03:27:08;76.68;;;35.88;;
61383;SDS011;63511;49.346;8.798;2023-02-11T03:29:39;71.65;;;33.40;;
61383;SDS011;63511;49.346;8.798;2023-02-11T03:32:11;71.40;;;34.40;;
61383;SDS011;63511;49.346;8.798;2023-02-11T03:34:44;76.88;;;34.63;;
61383;SDS011;63511;49.346;8.798;2023-02-11T03:37:17;76.97;;;36.10;;
61383;SDS011;63511;49.346;8.798;2023-02-11T03:39:47;93.13;;;38.47;;
61383;SDS011;63511;49.346;8.798;2023-02-11T03:42:18;64.45;;;33.45;;
61383;SDS011;63511;49.346;8.798;2023-02-11T03:44:47;76.43;;;34.53;;
61383;SDS011;63511;49.346;8.798;2023-02-11T03:47:18;73.45;;;35.97;;
61383;SDS011;63511;49.346;8.798;2023-02-11T03:49:49;75.28;;;35.45;;
61383;SDS011;63511;49.346;8.798;2023-02-11T03:52:20;82.75;;;36.25;;
61383;SDS011;63511;49.346;8.798;2023-02-11T03:54:48;73.53;;;34.38;;
61383;SDS011;63511;49.346;8.798;2023-02-11T03:57:20;75.13;;;35.40;;
61383;SDS011;63511;49.346;8.798;2023-02-11T03:59:50;73.93;;;35.63;;
61383;SDS011;63511;49.346;8.798;2023-02-11T04:02:18;66.15;;;34.65;;
61383;SDS011;63511;49.346;8.798;2023-02-11T04:04:46;65.40;;;34.22;;
61383;SDS011;63511;49.346;8.798;2023-02-11T04:07:14;67.10;;;34.25;;
61383;SDS011;63511;49.346;8.798;2023-02-11T04:09:40;71.78;;;32.92;;
61383;SDS011;63511;49.346;8.798;2023-02-11T04:12:07;73.45;;;35.08;;
61383;SDS011;63511;49.346;8.798;2023-02-11T04:14:34;74.85;;;34.92;;
61383;SDS011;63511;49.346;8.798;2023-02-11T04:17:00;72.05;;;34.15;;
61383;SDS011;63511;49.346;8.798;2023-02-11T04:19:27;72.80;;;34.17;;
61383;SDS011;63511;49.346;8.798;2023-02-11T04:21:53;73.63;;;36.10;;
61383;SDS011;63511;49.346;8.798;2023-02-11T04:24:21;78.97;;;35.38;;
61383;SDS011;63511;49.346;8.798;2023-02-11T04:26:48;75.45;;;33.65;;
61383;SDS011;63511;49.346;8.798;2023-02-11T04:29:15;68.63;;;33.70;;
61383;SDS011;63511;49.346;8.798;2023-02-11T04:31:41;76.03;;;33.80;;
61383;SDS011;63511;49.346;8.798;2023-02-11T04:34:08;70.93;;;33.22;;
61383;SDS011;63511;49.346;8.798;2023-02-11T04:36:34;66.93;;;31.08;;
61383;SDS011;63511;49.346;8.798;2023-02-11T04:39:01;65.82;;;31.48;;
61383;SDS011;63511;49.346;8.798;2023-02-11T04:41:29;68.93;;;32.75;;
61383;SDS011;63511;49.346;8.798;2023-02-11T04:43:55;70.28;;;32.80;;
61383;SDS011;63511;49.346;8.798;2023-02-11T04:46:22;65.28;;;32.17;;
61383;SDS011;63511;49.346;8.798;2023-02-11T04:48:48;60.58;;;29.83;;
61383;SDS011;63511;49.346;8.798;2023-02-11T04:51:15;68.30;;;34.08;;
61383;SDS011;63511;49.346;8.798;2023-02-11T04:53:41;67.25;;;32.72;;
61383;SDS011;63511;49.346;8.798;2023-02-11T04:56:08;68.03;;;32.55;;
61383;SDS011;63511;49.346;8.798;2023-02-11T04:58:36;72.25;;;33.92;;
61383;SDS011;63511;49.346;8.798;2023-02-11T05:01:05;62.50;;;31.00;;
61383;SDS011;63511;49.346;8.798;2023-02-11T05:03:33;69.97;;;33.17;;
61383;SDS011;63511;49.346;8.798;2023-02-11T05:05:59;81.20;;;34.05;;
61383;SDS011;63511;49.346;8.798;2023-02-11T05:08:26;67.88;;;31.60;;
61383;SDS011;63511;49.346;8.798;2023-02-11T05:10:53;59.22;;;31.95;;
61383;SDS011;63511;49.346;8.798;2023-02-11T05:13:19;60.78;;;31.15;;
61383;SDS011;63511;49.346;8.798;2023-02-11T05:15:47;64.05;;;31.70;;
61383;SDS011;63511;49.346;8.798;2023-02-11T05:18:14;68.15;;;32.70;;
61383;SDS011;63511;49.346;8.798;2023-02-11T05:20:41;72.68;;;31.77;;
61383;SDS011;63511;49.346;8.798;2023-02-11T05:23:08;56.10;;;30.50;;
61383;SDS011;63511;49.346;8.798;2023-02-11T05:25:35;61.72;;;30.95;;
61383;SDS011;63511;49.346;8.798;2023-02-11T05:28:01;70.32;;;32.00;;
61383;SDS011;63511;49.346;8.798;2023-02-11T05:30:29;61.90;;;29.60;;
61383;SDS011;63511;49.346;8.798;2023-02-11T05:32:57;65.43;;;29.95;;
61383;SDS011;63511;49.346;8.798;2023-02-11T05:35:24;64.85;;;31.10;;
61383;SDS011;63511;49.346;8.798;2023-02-11T05:37:50;63.55;;;33.20;;
61383;SDS011;63511;49.346;8.798;2023-02-11T05:40:17;67.13;;;30.80;;
61383;SDS011;63511;49.346;8.798;2023-02-11T05:42:43;65.38;;;30.45;;
61383;SDS011;63511;49.346;8.798;2023-02-11T05:45:10;64.85;;;31.05;;
61383;SDS011;63511;49.346;8.798;2023-02-11T05:47:36;73.10;;;37.13;;
61383;SDS011;63511;49.346;8.798;2023-02-11T05:50:05;77.80;;;33.95;;
61383;SDS011;63511;49.346;8.798;2023-02-11T05:52:31;70.05;;;33.33;;
61383;SDS011;63511;49.346;8.798;2023-02-11T05:54:58;71.65;;;33.55;;
61383;SDS011;63511;49.346;8.798;2023-02-11T05:57:24;70.88;;;35.50;;
61383;SDS011;63511;49.346;8.798;2023-02-11T05:59:51;78.43;;;34.45;;
61383;SDS011;63511;49.346;8.798;2023-02-11T06:02:17;76.43;;;34.40;;
61383;SDS011;63511;49.346;8.798;2023-02-11T06:04:44;72.40;;;33.97;;
61383;SDS011;63511;49.346;8.798;2023-02-11T06:07:12;69.88;;;32.08;;
61383;SDS011;63511;49.346;8.798;2023-02-11T06:09:39;72.65;;;34.22;;
61383;SDS011;63511;49.346;8.798;2023-02-11T06:12:05;62.58;;;30.35;;
61383;SDS011;63511;49.346;8.798;2023-02-11T06:14:32;78.45;;;35.05;;
61383;SDS011;63511;49.346;8.798;2023-02-11T06:16:59;67.72;;;33.42;;
61383;SDS011;63511;49.346;8.798;2023-02-11T06:19:26;66.85;;;31.83;;
61383;SDS011;63511;49.346;8.798;2023-02-11T06:21:52;78.95;;;34.50;;
61383;SDS011;63511;49.346;8.798;2023-02-11T06:24:20;72.75;;;33.03;;
61383;SDS011;63511;49.346;8.798;2023-02-11T06:26:47;69.47;;;31.50;;
61383;SDS011;63511;49.346;8.798;2023-02-11T06:29:13;61.85;;;30.52;;
61383;SDS011;63511;49.346;8.798;2023-02-11T06:31:40;68.43;;;29.42;;
61383;SDS011;63511;49.346;8.798;2023-02-11T06:34:06;61.40;;;30.83;;
61383;SDS011;63511;49.346;8.798;2023-02-11T06:36:34;65.68;;;29.45;;
61383;SDS011;63511;49.346;8.798;2023-02-11T06:39:01;66.30;;;29.25;;
61383;SDS011;63511;49.346;8.798;2023-02-11T06:41:29;69.13;;;29.52;;
61383;SDS011;63511;49.346;8.798;2023-02-11T06:43:56;64.95;;;28.98;;
61383;SDS011;63511;49.346;8.798;2023-02-11T06:46:22;61.45;;;27.80;;
61383;SDS011;63511;49.346;8.798;2023-02-11T06:48:49;62.28;;;28.38;;
61383;SDS011;63511;49.346;8.798;2023-02-11T06:51:16;58.53;;;28.10;;
61383;SDS011;63511;49.346;8.798;2023-02-11T06:53:44;56.75;;;27.17;;
61383;SDS011;63511;49.346;8.798;2023-02-11T06:56:12;62.58;;;28.92;;
61383;SDS011;63511;49.346;8.798;2023-02-11T06:58:41;68.32;;;29.25;;
61383;SDS011;63511;49.346;8.798;2023-02-11T07:01:09;58.63;;;27.40;;
61383;SDS011;63511;49.346;8.798;2023-02-11T07:03:38;59.65;;;27.60;;
61383;SDS011;63511;49.346;8.798;2023-02-11T07:06:09;54.42;;;26.35;;
61383;SDS011;63511;49.346;8.798;2023-02-11T07:08:37;57.72;;;27.33;;
61383;SDS011;63511;49.346;8.798;2023-02-11T07:11:07;57.13;;;26.42;;
61383;SDS011;63511;49.346;8.798;2023-02-11T07:13:35;55.22;;;27.70;;
61383;SDS011;63511;49.346;8.798;2023-02-11T07:16:04;52.92;;;26.58;;
61383;SDS011;63511;49.346;8.798;2023-02-11T07:18:31;57.90;;;29.13;;
61383;SDS011;63511;49.346;8.798;2023-02-11T07:20:58;55.30;;;27.92;;
61383;SDS011;63511;49.346;8.798;2023-02-11T07:23:24;61.97;;;27.77;;
61383;SDS011;63511;49.346;8.798;2023-02-11T07:25:51;57.17;;;27.48;;
61383;SDS011;63511;49.346;8.798;2023-02-11T07:28:17;56.95;;;28.75;;
61383;SDS011;63511;49.346;8.798;2023-02-11T07:30:44;58.72;;;28.90;;
61383;SDS011;63511;49.346;8.798;2023-02-11T07:33:12;60.35;;;27.73;;
61383;SDS011;63511;49.346;8.798;2023-02-11T07:35:38;65.45;;;29.25;;
61383;SDS011;63511;49.346;8.798;2023-02-11T07:38:05;59.72;;;27.27;;
61383;SDS011;63511;49.346;8.798;2023-02-11T07:40:31;58.60;;;29.20;;
61383;SDS011;63511;49.346;8.798;2023-02-11T07:42:59;64.32;;;29.67;;
61383;SDS011;63511;49.346;8.798;2023-02-11T07:45:26;57.08;;;27.48;;
61383;SDS011;63511;49.346;8.798;2023-02-11T07:47:52;60.30;;;29.17;;
61383;SDS011;63511;49.346;8.798;2023-02-11T07:50:20;64.15;;;28.52;;
61383;SDS011;63511;49.346;8.798;2023-02-11T07:52:46;60.47;;;30.00;;
61383;SDS011;63511;49.346;8.798;2023-02-11T07:55:13;62.42;;;29.75;;
61383;SDS011;63511;49.346;8.798;2023-02-11T07:57:39;72.28;;;32.38;;
61383;SDS011;63511;49.346;8.798;2023-02-11T08:00:06;62.50;;;30.38;;
61383;SDS011;63511;49.346;8.798;2023-02-11T08:02:34;62.90;;;30.95;;
61383;SDS011;63511;49.346;8.798;2023-02-11T08:05:00;68.13;;;31.98;;
61383;SDS011;63511;49.346;8.798;2023-02-11T08:07:28;64.88;;;31.23;;
61383;SDS011;63511;49.346;8.798;2023-02-11T08:09:54;66.05;;;29.60;;
61383;SDS011;63511;49.346;8.798;2023-02-11T08:12:21;62.90;;;29.23;;
61383;SDS011;63511;49.346;8.798;2023-02-11T08:14:47;61.20;;;28.83;;
61383;SDS011;63511;49.346;8.798;2023-02-11T08:17:14;62.78;;;31.52;;
61383;SDS011;63511;49.346;8.798;2023-02-11T08:19:41;55.65;;;29.92;;
61383;SDS011;63511;49.346;8.798;2023-02-11T08:22:07;59.10;;;28.55;;
61383;SDS011;63511;49.346;8.798;2023-02-11T08:24:35;60.10;;;29.73;;
61383;SDS011;63511;49.346;8.798;2023-02-11T08:27:02;60.65;;;28.08;;
61383;SDS011;63511;49.346;8.798;2023-02-11T08:29:28;60.63;;;27.83;;
61383;SDS011;63511;49.346;8.798;2023-02-11T08:31:55;60.30;;;28.35;;
61383;SDS011;63511;49.346;8.798;2023-02-11T08:34:22;54.28;;;26.92;;
61383;SDS011;63511;49.346;8.798;2023-02-11T08:36:48;60.17;;;28.55;;
61383;SDS011;63511;49.346;8.798;2023-02-11T08:39:15;62.83;;;27.30;;
61383;SDS011;63511;49.346;8.798;2023-02-11T08:41:44;65.00;;;28.00;;
61383;SDS011;63511;49.346;8.798;2023-02-11T08:44:12;60.50;;;27.40;;
61383;SDS011;63511;49.346;8.798;2023-02-11T08:46:39;47.35;;;23.65;;
61383;SDS011;63511;49.346;8.798;2023-02-11T08:49:05;60.95;;;27.48;;
61383;SDS011;63511;49.346;8.798;2023-02-11T08:51:32;57.08;;;26.80;;
61383;SDS011;63511;49.346;8.798;2023-02-11T08:53:59;58.58;;;27.77;;
61383;SDS011;63511;49.346;8.798;2023-02-11T08:56:26;58.03;;;27.55;;
61383;SDS011;63511;49.346;8.798;2023-02-11T08:58:56;52.88;;;26.73;;
61383;SDS011;63511;49.346;8.798;2023-02-11T09:01:25;57.78;;;26.80;;
61383;SDS011;63511;49.346;8.798;2023-02-11T09:03:53;52.00;;;27.42;;
61383;SDS011;63511;49.346;8.798;2023-02-11T09:06:21;53.85;;;27.73;;
61383;SDS011;63511;49.346;8.798;2023-02-11T09:08:49;58.28;;;29.80;;
61383;SDS011;63511;49.346;8.798;2023-02-11T09:11:18;55.72;;;28.83;;
61383;SDS011;63511;49.346;8.798;2023-02-11T09:13:47;53.35;;;26.02;;
61383;SDS011;63511;49.346;8.798;2023-02-11T09:16:16;60.92;;;29.13;;
61383;SDS011;63511;49.346;8.798;2023-02-11T09:18:45;48.97;;;26.13;;
61383;SDS011;63511;49.346;8.798;2023-02-11T09:21:12;56.42;;;28.25;;
61383;SDS011;63511;49.346;8.798;2023-02-11T09:23:39;57.67;;;29.33;;
61383;SDS011;63511;49.346;8.798;2023-02-11T09:26:10;53.50;;;27.05;;
61383;SDS011;63511;49.346;8.798;2023-02-11T09:28:38;53.72;;;27.83;;
61383;SDS011;63511;49.346;8.798;2023-02-11T09:31:05;50.17;;;27.17;;
61383;SDS011;63511;49.346;8.798;2023-02-11T09:33:34;52.20;;;27.02;;
61383;SDS011;63511;49.346;8.798;2023-02-11T09:36:02;56.85;;;26.45;;
61383;SDS011;63511;49.346;8.798;2023-02-11T09:38:29;51.90;;;27.27;;
61383;SDS011;63511;49.346;8.798;2023-02-11T09:40:56;47.17;;;25.88;;
61383;SDS011;63511;49.346;8.798;2023-02-11T09:43:23;55.75;;;30.42;;
61383;SDS011;63511;49.346;8.798;2023-02-11T09:45:56;61.15;;;27.23;;
61383;SDS011;63511;49.346;8.798;2023-02-11T09:48:23;51.40;;;25.85;;
61383;SDS011;63511;49.346;8.798;2023-02-11T09:50:51;53.85;;;27.35;;
61383;SDS011;63511;49.346;8.798;2023-02-11T09:53:21;56.42;;;26.67;;
61383;SDS011;63511;49.346;8.798;2023-02-11T09:55:51;48.92;;;27.48;;
61383;SDS011;63511;49.346;8.798;2023-02-11T09:58:23;49.40;;;25.13;;
61383;SDS011;63511;49.346;8.798;2023-02-11T10:03:38;50.47;;;25.10;;
61383;SDS011;63511;49.346;8.798;2023-02-11T10:09:19;47.65;;;24.33;;
61383;SDS011;63511;49.346;8.798;2023-02-11T10:11:56;53.08;;;23.70;;
61383;SDS011;63511;49.346;8.798;2023-02-11T10:14:49;39.75;;;23.77;;
61383;SDS011;63511;49.346;8.798;2023-02-11T10:17:31;38.58;;;22.45;;
61383;SDS011;63511;49.346;8.798;2023-02-11T10:20:14;46.63;;;23.15;;
61383;SDS011;63511;49.346;8.798;2023-02-11T10:25:20;45.92;;;23.23;;
61383;SDS011;63511;49.346;8.798;2023-02-11T10:27:49;38.88;;;21.45;;
61383;SDS011;63511;49.346;8.798;2023-02-11T10:30:20;42.72;;;23.23;;
61383;SDS011;63511;49.346;8.798;2023-02-11T10:32:53;41.92;;;21.05;;
61383;SDS011;63511;49.346;8.798;2023-02-11T10:35:24;38.58;;;21.40;;
61383;SDS011;63511;49.346;8.798;2023-02-11T10:37:52;43.05;;;22.90;;
61383;SDS011;63511;49.346;8.798;2023-02-11T10:40:20;42.35;;;22.75;;
61383;SDS011;63511;49.346;8.798;2023-02-11T10:42:49;42.83;;;23.25;;
61383;SDS011;63511;49.346;8.798;2023-02-11T10:45:18;40.92;;;23.70;;
61383;SDS011;63511;49.346;8.798;2023-02-11T10:47:50;41.05;;;22.73;;
61383;SDS011;63511;49.346;8.798;2023-02-11T10:50:18;45.58;;;22.88;;
61383;SDS011;63511;49.346;8.798;2023-02-11T10:52:47;53.33;;;24.33;;
61383;SDS011;63511;49.346;8.798;2023-02-11T10:55:15;46.17;;;24.33;;
61383;SDS011;63511;49.346;8.798;2023-02-11T10:57:48;52.75;;;26.25;;
61383;SDS011;63511;49.346;8.798;2023-02-11T11:00:19;44.58;;;22.85;;
61383;SDS011;63511;49.346;8.798;2023-02-11T11:02:53;47.90;;;22.95;;
61383;SDS011;63511;49.346;8.798;2023-02-11T11:05:22;38.58;;;22.98;;
61383;SDS011;63511;49.346;8.798;2023-02-11T11:07:54;58.97;;;27.98;;
61383;SDS011;63511;49.346;8.798;2023-02-11T11:10:33;41.88;;;22.73;;
61383;SDS011;63511;49.346;8.798;2023-02-11T11:13:11;39.88;;;22.55;;
61383;SDS011;63511;49.346;8.798;2023-02-11T11:15:53;41.45;;;23.58;;
61383;SDS011;63511;49.346;8.798;2023-02-11T11:18:32;38.38;;;21.65;;
61383;SDS011;63511;49.346;8.798;2023-02-11T11:21:00;42.20;;;23.15;;
61383;SDS011;63511;49.346;8.798;2023-02-11T11:23:28;44.75;;;23.63;;
61383;SDS011;63511;49.346;8.798;2023-02-11T11:26:06;42.60;;;23.77;;
61383;SDS011;63511;49.346;8.798;2023-02-11T11:28:35;44.30;;;22.48;;
61383;SDS011;63511;49.346;8.798;2023-02-11T11:31:05;44.50;;;22.13;;
61383;SDS011;63511;49.346;8.798;2023-02-11T11:33:40;42.13;;;22.20;;
61383;SDS011;63511;49.346;8.798;2023-02-11T11:36:09;47.55;;;23.38;;
61383;SDS011;63511;49.346;8.798;2023-02-11T11:38:43;44.08;;;24.17;;
61383;SDS011;63511;49.346;8.798;2023-02-11T11:41:18;32.92;;;19.33;;
61383;SDS011;63511;49.346;8.798;2023-02-11T11:46:42;37.25;;;20.38;;
61383;SDS011;63511;49.346;8.798;2023-02-11T11:49:13;38.10;;;21.30;;
61383;SDS011;63511;49.346;8.798;2023-02-11T11:51:50;40.03;;;21.15;;
61383;SDS011;63511;49.346;8.798;2023-02-11T11:54:26;40.67;;;22.55;;
61383;SDS011;63511;49.346;8.798;2023-02-11T11:56:55;41.75;;;20.38;;
61383;SDS011;63511;49.346;8.798;2023-02-11T11:59:27;37.97;;;21.95;;
61383;SDS011;63511;49.346;8.798;2023-02-11T12:02:02;41.55;;;22.25;;
61383;SDS011;63511;49.346;8.798;2023-02-11T12:04:50;38.05;;;21.98;;
61383;SDS011;63511;49.346;8.798;2023-02-11T12:07:31;38.88;;;21.20;;
61383;SDS011;63511;49.346;8.798;2023-02-11T12:10:16;43.00;;;20.92;;
61383;SDS011;63511;49.346;8.798;2023-02-11T12:12:55;39.60;;;21.33;;
61383;SDS011;63511;49.346;8.798;2023-02-11T12:15:34;38.78;;;21.42;;
61383;SDS011;63511;49.346;8.798;2023-02-11T12:18:14;38.53;;;21.80;;
61383;SDS011;63511;49.346;8.798;2023-02-11T12:21:03;44.22;;;21.40;;
61383;SDS011;63511;49.346;8.798;2023-02-11T12:23:43;37.85;;;21.00;;
61383;SDS011;63511;49.346;8.798;2023-02-11T12:26:20;40.00;;;20.95;;
61383;SDS011;63511;49.346;8.798;2023-02-11T12:28:57;35.35;;;21.38;;
61383;SDS011;63511;49.346;8.798;2023-02-11T12:31:36;40.92;;;20.15;;
61383;SDS011;63511;49.346;8.798;2023-02-11T12:34:29;36.92;;;20.30;;
61383;SDS011;63511;49.346;8.798;2023-02-11T12:37:06;43.25;;;21.63;;
61383;SDS011;63511;49.346;8.798;2023-02-11T12:39:46;36.88;;;21.25;;
61383;SDS011;63511;49.346;8.798;2023-02-11T12:45:34;35.55;;;19.50;;
61383;SDS011;63511;49.346;8.798;2023-02-11T12:48:13;38.05;;;20.83;;
61383;SDS011;63511;49.346;8.798;2023-02-11T12:50:52;33.92;;;20.67;;
61383;SDS011;63511;49.346;8.798;2023-02-11T12:53:31;32.67;;;20.33;;
61383;SDS011;63511;49.346;8.798;2023-02-11T12:56:09;37.13;;;20.48;;
61383;SDS011;63511;49.346;8.798;2023-02-11T12:58:40;33.40;;;19.83;;
61383;SDS011;63511;49.346;8.798;2023-02-11T13:01:11;36.58;;;20.63;;
61383;SDS011;63511;49.346;8.798;2023-02-11T13:03:45;42.70;;;20.60;;
61383;SDS011;63511;49.346;8.798;2023-02-11T13:06:16;41.40;;;21.10;;
61383;SDS011;63511;49.346;8.798;2023-02-11T13:08:46;37.13;;;21.10;;
61383;SDS011;63511;49.346;8.798;2023-02-11T13:11:17;44.63;;;20.58;;
61383;SDS011;63511;49.346;8.798;2023-02-11T13:13:49;34.65;;;20.23;;
61383;SDS011;63511;49.346;8.798;2023-02-11T13:16:24;39.20;;;21.10;;
61383;SDS011;63511;49.346;8.798;2023-02-11T13:19:00;36.30;;;19.60;;
61383;SDS011;63511;49.346;8.798;2023-02-11T13:21:35;37.45;;;20.08;;
61383;SDS011;63511;49.346;8.798;2023-02-11T13:24:11;31.83;;;19.95;;
61383;SDS011;63511;49.346;8.798;2023-02-11T13:26:46;40.03;;;20.52;;
61383;SDS011;63511;49.346;8.798;2023-02-11T13:29:24;44.17;;;20.45;;
61383;SDS011;63511;49.346;8.798;2023-02-11T13:32:04;37.40;;;21.17;;
61383;SDS011;63511;49.346;8.798;2023-02-11T13:37:22;32.30;;;18.15;;
61383;SDS011;63511;49.346;8.798;2023-02-11T13:39:55;33.85;;;18.80;;
61383;SDS011;63511;49.346;8.798;2023-02-11T13:42:23;34.30;;;18.83;;
61383;SDS011;63511;49.346;8.798;2023-02-11T13:44:50;32.97;;;18.90;;
61383;SDS011;63511;49.346;8.798;2023-02-11T13:47:24;35.53;;;18.10;;
61383;SDS011;63511;49.346;8.798;2023-02-11T13:49:54;35.13;;;19.20;;
61383;SDS011;63511;49.346;8.798;2023-02-11T13:52:23;30.73;;;17.92;;
61383;SDS011;63511;49.346;8.798;2023-02-11T13:54:53;44.33;;;20.15;;
61383;SDS011;63511;49.346;8.798;2023-02-11T13:57:29;34.10;;;21.48;;
61383;SDS011;63511;49.346;8.798;2023-02-11T13:59:59;30.80;;;19.55;;
61383;SDS011;63511;49.346;8.798;2023-02-11T14:02:30;37.95;;;20.73;;
61383;SDS011;63511;49.346;8.798;2023-02-11T14:05:23;32.28;;;18.45;;
61383;SDS011;63511;49.346;8.798;2023-02-11T14:08:16;39.20;;;20.15;;
61383;SDS011;63511;49.346;8.798;2023-02-11T14:11:06;37.45;;;18.75;;
61383;SDS011;63511;49.346;8.798;2023-02-11T14:19:48;34.60;;;19.13;;
61383;SDS011;63511;49.346;8.798;2023-02-11T14:22:16;37.22;;;19.60;;
61383;SDS011;63511;49.346;8.798;2023-02-11T14:24:51;31.83;;;17.92;;
61383;SDS011;63511;49.346;8.798;2023-02-11T14:27:30;34.08;;;19.80;;
61383;SDS011;63511;49.346;8.798;2023-02-11T14:33:24;39.05;;;20.80;;
61383;SDS011;63511;49.346;8.798;2023-02-11T14:36:18;35.08;;;18.58;;
61383;SDS011;63511;49.346;8.798;2023-02-11T14:39:05;33.92;;;18.92;;
61383;SDS011;63511;49.346;8.798;2023-02-11T14:41:44;35.13;;;16.95;;
61383;SDS011;63511;49.346;8.798;2023-02-11T14:44:14;35.53;;;19.27;;
61383;SDS011;63511;49.346;8.798;2023-02-11T14:46:43;34.55;;;18.25;;
61383;SDS011;63511;49.346;8.798;2023-02-11T14:49:12;38.22;;;19.27;;
61383;SDS011;63511;49.346;8.798;2023-02-11T14:51:51;34.40;;;19.35;;
61383;SDS011;63511;49.346;8.798;2023-02-11T14:54:20;43.80;;;20.92;;
61383;SDS011;63511;49.346;8.798;2023-02-11T14:57:04;31.33;;;19.13;;
61383;SDS011;63511;49.346;8.798;2023-02-11T14:59:32;35.38;;;20.27;;
61383;SDS011;63511;49.346;8.798;2023-02-11T15:01:59;35.50;;;19.05;;
61383;SDS011;63511;49.346;8.798;2023-02-11T15:04:28;41.50;;;19.50;;
61383;SDS011;63511;49.346;8.798;2023-02-11T15:06:57;40.90;;;19.27;;
61383;SDS011;63511;49.346;8.798;2023-02-11T15:09:31;35.00;;;19.67;;
61383;SDS011;63511;49.346;8.798;2023-02-11T15:11:59;35.97;;;19.55;;
61383;SDS011;63511;49.346;8.798;2023-02-11T15:14:27;35.28;;;20.13;;